Time;durP1;ratioP1;P1;durP2;ratioP2;P2;SDS_P1;SDS_P2;PMS_P1;PMS_P2;Temp;Humidity;BMP_temperature;BMP_pressure;BME280_temperature;BME280_humidity;BME280_pressure;Samples;Min_cycle;Max_cycle;Signal;HPM_P1;HPM_P2
2022/06/19 00:00:46;;;;;;;2.15;1.33;;;26.30;46.50;;;;;;4957597;28;20035;-48
2022/06/19 00:03:19;;;;;;;2.25;1.35;;;26.30;46.50;;;;;;4957471;28;20031;-48
2022/06/19 00:05:45;;;;;;;2.40;1.33;;;26.30;46.50;;;;;;4957837;28;20038;-49
2022/06/19 00:08:11;;;;;;;2.50;1.25;;;26.30;46.60;;;;;;4957897;28;20023;-49
2022/06/19 00:10:36;;;;;;;2.42;1.40;;;26.30;46.60;;;;;;4958070;28;20126;-48
2022/06/19 00:13:02;;;;;;;1.88;1.23;;;26.30;46.60;;;;;;4957116;28;20086;-48
2022/06/19 00:15:28;;;;;;;2.65;1.40;;;26.30;46.60;;;;;;4957622;28;20050;-46
2022/06/19 00:17:54;;;;;;;2.35;1.35;;;26.30;46.70;;;;;;4957620;28;20038;-48
2022/06/19 00:20:20;;;;;;;2.63;1.30;;;26.30;46.60;;;;;;4957091;28;20029;-48
2022/06/19 00:22:46;;;;;;;2.38;1.38;;;26.30;46.60;;;;;;4957677;28;20106;-48
2022/06/19 00:25:12;;;;;;;3.78;1.85;;;26.30;46.70;;;;;;4957150;28;20052;-48
2022/06/19 00:27:39;;;;;;;2.60;1.40;;;26.30;46.70;;;;;;4956493;28;20037;-48
2022/06/19 00:30:10;;;;;;;3.08;1.63;;;26.30;46.70;;;;;;4957340;28;20038;-48
2022/06/19 00:32:36;;;;;;;2.72;1.50;;;26.30;46.70;;;;;;4956792;28;20071;-47
2022/06/19 00:35:03;;;;;;;3.03;1.70;;;26.30;46.70;;;;;;4957525;28;20015;-48
2022/06/19 00:37:29;;;;;;;2.38;1.23;;;26.30;46.70;;;;;;4957263;28;20027;-48
2022/06/19 00:39:56;;;;;;;2.72;1.50;;;26.30;46.70;;;;;;4956398;28;20106;-47
2022/06/19 00:42:24;;;;;;;3.53;1.88;;;26.30;46.70;;;;;;4956930;28;20031;-48
2022/06/19 00:44:51;;;;;;;2.58;1.50;;;26.30;46.70;;;;;;4957528;28;20094;-49
2022/06/19 00:47:19;;;;;;;2.42;1.50;;;26.30;46.80;;;;;;4956036;28;20050;-48
2022/06/19 00:49:56;;;;;;;2.83;1.40;;;26.20;46.80;;;;;;4957201;28;20324;-48
2022/06/19 00:52:38;;;;;;;2.58;1.58;;;26.30;46.70;;;;;;4954805;28;20045;-48
2022/06/19 00:55:08;;;;;;;2.35;1.35;;;26.30;46.70;;;;;;4954458;28;20027;-47
2022/06/19 00:57:39;;;;;;;3.00;1.60;;;26.30;46.70;;;;;;4957346;28;20442;-48
2022/06/19 01:00:12;;;;;;;2.83;1.33;;;26.30;46.80;;;;;;4953691;28;20683;-48
2022/06/19 01:02:40;;;;;;;3.60;1.40;;;26.30;46.80;;;;;;4955254;28;20542;-48
2022/06/19 01:05:07;;;;;;;2.45;1.40;;;26.30;46.80;;;;;;4956140;28;20630;-48
2022/06/19 01:07:33;;;;;;;3.00;1.70;;;26.30;46.80;;;;;;4956959;28;20030;-49
2022/06/19 01:09:58;;;;;;;2.67;1.30;;;26.30;46.80;;;;;;4957083;28;20398;-48
2022/06/19 01:12:26;;;;;;;2.88;1.60;;;26.20;46.80;;;;;;4956944;28;20162;-49
2022/06/19 01:14:58;;;;;;;3.70;1.60;;;26.30;46.70;;;;;;4953464;28;20043;-48
2022/06/19 01:17:24;;;;;;;;;;;26.20;46.80;;;;;;4956606;28;20030;-48
2022/06/19 01:19:50;;;;;;;2.45;1.50;;;26.20;46.70;;;;;;4956566;28;19917;-48
2022/06/19 01:22:40;;;;;;;3.25;1.67;;;26.20;46.80;;;;;;4956257;28;20525;-48
2022/06/19 01:25:06;;;;;;;3.22;1.60;;;26.20;46.80;;;;;;4956165;28;20058;-47
2022/06/19 01:30:21;;;;;;;2.75;1.70;;;26.20;46.80;;;;;;4956360;28;20103;-48
2022/06/19 01:32:49;;;;;;;2.70;1.70;;;26.20;46.70;;;;;;4955892;28;20159;-48
2022/06/19 01:35:18;;;;;;;3.05;1.58;;;26.20;46.70;;;;;;4955966;28;20042;-48
2022/06/19 01:37:45;;;;;;;3.05;1.73;;;26.20;46.70;;;;;;4955002;28;20035;-48
2022/06/19 01:40:20;;;;;;;3.63;1.98;;;26.20;46.60;;;;;;4955535;28;20093;-49
2022/06/19 01:42:47;;;;;;;3.67;1.75;;;26.10;46.70;;;;;;4956644;28;20740;-48
2022/06/19 01:45:13;;;;;;;2.35;1.40;;;26.10;46.60;;;;;;4954793;28;20074;-48
2022/06/19 01:47:40;;;;;;;6.35;1.70;;;26.10;46.60;;;;;;4956360;28;20019;-48
2022/06/19 01:50:09;;;;;;;2.70;1.60;;;26.20;46.50;;;;;;4955777;28;20037;-48
2022/06/19 01:52:35;;;;;;;2.75;1.65;;;26.10;46.50;;;;;;4954997;28;20519;-48
2022/06/19 01:55:13;;;;;;;2.40;1.48;;;26.10;46.40;;;;;;4955916;28;20194;-47
2022/06/19 01:57:43;;;;;;;3.58;1.80;;;26.10;46.40;;;;;;4955460;28;20054;-49
2022/06/19 02:00:14;;;;;;;4.65;2.15;;;26.20;46.30;;;;;;4955964;28;20049;-47
2022/06/19 02:02:42;;;;;;;2.65;1.30;;;26.10;46.30;;;;;;4952086;28;20061;-49
2022/06/19 02:05:08;;;;;;;2.47;1.60;;;26.10;46.30;;;;;;4954818;28;20074;-48
2022/06/19 02:07:35;;;;;;;3.50;1.40;;;26.10;46.20;;;;;;4955513;28;20023;-49
2022/06/19 02:10:01;;;;;;;3.00;1.60;;;26.10;46.20;;;;;;4954112;28;20023;-48
2022/06/19 02:12:31;;;;;;;3.15;1.40;;;26.10;46.20;;;;;;4951431;28;20435;-49
2022/06/19 02:14:56;;;;;;;3.17;1.77;;;26.10;46.20;;;;;;4957907;28;20024;-48
2022/06/19 02:17:33;;;;;;;3.30;1.42;;;26.10;46.10;;;;;;4952711;28;20304;-48
2022/06/19 02:19:59;;;;;;;2.38;1.55;;;26.10;46.10;;;;;;4953541;28;20078;-48
2022/06/19 02:22:24;;;;;;;2.80;1.50;;;26.10;46.00;;;;;;4955011;28;20039;-49
2022/06/19 02:24:51;;;;;;;2.55;1.50;;;26.10;46.00;;;;;;4955893;28;20047;-48
2022/06/19 02:27:17;;;;;;;3.58;1.60;;;26.10;46.00;;;;;;4955117;28;20244;-48
2022/06/19 02:29:43;;;;;;;2.65;1.50;;;26.10;46.00;;;;;;4955571;28;20023;-48
2022/06/19 02:32:36;;;;;;;2.67;1.55;;;26.10;46.00;;;;;;4955068;28;20027;-48
2022/06/19 02:35:02;;;;;;;2.50;1.27;;;26.10;46.00;;;;;;4955154;28;20153;-47
2022/06/19 02:37:36;;;;;;;2.55;1.70;;;26.10;46.00;;;;;;4955021;28;20252;-48
2022/06/19 02:40:22;;;;;;;2.78;1.42;;;26.10;46.00;;;;;;4953079;28;20042;-48
2022/06/19 02:42:49;;;;;;;2.78;1.60;;;26.10;46.10;;;;;;4955098;28;20031;-47
2022/06/19 02:45:26;;;;;;;3.33;1.70;;;26.10;46.00;;;;;;4956405;28;20041;-48
2022/06/19 02:47:53;;;;;;;2.83;1.60;;;26.00;46.10;;;;;;4953330;28;20023;-48
2022/06/19 02:50:23;;;;;;;3.13;1.70;;;26.00;46.10;;;;;;4953562;28;20023;-47
2022/06/19 02:52:49;;;;;;;2.67;1.55;;;26.10;46.10;;;;;;4953941;28;20019;-49
2022/06/19 02:55:16;;;;;;;2.45;1.48;;;26.10;46.10;;;;;;4954459;28;20177;-48
2022/06/19 02:57:42;;;;;;;2.45;1.60;;;26.00;46.10;;;;;;4954929;28;20371;-48
2022/06/19 03:00:13;;;;;;;2.83;1.63;;;26.00;46.80;;;;;;4954790;28;20038;-48
2022/06/19 03:02:40;;;;;;;3.10;1.70;;;26.00;46.10;;;;;;4954402;28;20034;-47
2022/06/19 03:05:09;;;;;;;4.22;1.80;;;26.00;46.30;;;;;;4952326;28;20039;-47
2022/06/19 03:07:35;;;;;;;3.17;1.60;;;26.00;46.10;;;;;;4953280;28;20423;-48
2022/06/19 03:10:00;;;;;;;3.75;1.98;;;26.00;46.10;;;;;;4954580;28;20046;-48
2022/06/19 03:12:26;;;;;;;3.05;1.65;;;26.00;46.10;;;;;;4954340;28;20423;-48
2022/06/19 03:14:52;;;;;;;3.03;1.55;;;26.00;46.10;;;;;;4955585;28;20054;-49
2022/06/19 03:17:21;;;;;;;3.55;1.65;;;26.00;46.10;;;;;;4954535;28;20102;-47
2022/06/19 03:19:47;;;;;;;2.55;1.50;;;26.00;46.10;;;;;;4953944;28;20206;-48
2022/06/19 03:22:13;;;;;;;3.40;1.70;;;26.00;46.10;;;;;;4953816;28;20108;-48
2022/06/19 03:24:39;;;;;;;3.35;1.67;;;26.00;46.10;;;;;;4952016;28;20024;-48
2022/06/19 03:27:06;;;;;;;2.35;1.33;;;26.00;46.10;;;;;;4952644;28;20015;-48
2022/06/19 03:29:32;;;;;;;2.40;1.50;;;26.00;46.00;;;;;;4959958;28;20019;-48
2022/06/19 03:31:58;;;;;;;3.15;1.50;;;26.00;46.00;;;;;;4959185;28;20027;-48
2022/06/19 03:34:24;;;;;;;2.10;1.30;;;26.00;46.10;;;;;;4960724;28;20046;-48
2022/06/19 03:36:51;;;;;;;2.20;1.33;;;26.00;46.10;;;;;;4960026;28;20559;-48
2022/06/19 03:39:17;;;;;;;2.53;1.40;;;26.00;46.10;;;;;;4960632;28;20058;-48
2022/06/19 03:41:43;;;;;;;2.70;1.50;;;26.00;46.10;;;;;;4957583;28;20067;-48
2022/06/19 03:44:10;;;;;;;2.47;1.30;;;26.00;46.20;;;;;;4960623;28;20031;-48
2022/06/19 03:46:36;;;;;;;2.95;1.40;;;26.00;46.10;;;;;;4960844;28;20257;-48
2022/06/19 03:49:02;;;;;;;2.35;1.40;;;26.00;46.10;;;;;;4960207;28;20038;-47
2022/06/19 03:51:31;;;;;;;3.45;1.42;;;26.00;46.20;;;;;;4960604;28;20130;-48
2022/06/19 03:53:57;;;;;;;3.05;1.33;;;26.00;46.10;;;;;;4959649;28;20176;-48
2022/06/19 03:56:29;;;;;;;3.53;1.60;;;26.00;46.20;;;;;;4960170;28;20027;-47
2022/06/19 03:58:56;;;;;;;3.58;1.60;;;26.00;46.20;;;;;;4960142;28;20022;-48
2022/06/19 04:01:27;;;;;;;2.97;1.70;;;26.00;46.20;;;;;;4961260;28;20030;-47
2022/06/19 04:03:54;;;;;;;2.22;1.38;;;26.00;46.20;;;;;;4960293;28;20054;-47
2022/06/19 04:06:23;;;;;;;2.83;1.40;;;25.90;45.80;;;;;;4960533;28;20027;-48
2022/06/19 04:08:49;;;;;;;2.92;1.50;;;25.90;45.70;;;;;;4958667;28;20035;-49
2022/06/19 04:11:16;;;;;;;2.35;1.35;;;25.90;45.80;;;;;;4959149;28;20027;-49
2022/06/19 04:13:42;;;;;;;2.15;1.30;;;25.90;45.80;;;;;;4941247;28;20383;-49
2022/06/19 04:16:14;;;;;;;2.95;1.48;;;25.90;45.80;;;;;;4961160;28;20089;-47
2022/06/19 04:18:39;;;;;;;3.28;1.35;;;25.90;45.80;;;;;;4960465;28;20031;-47
2022/06/19 04:21:05;;;;;;;2.45;1.38;;;26.00;46.90;;;;;;4960347;28;20027;-48
2022/06/19 04:23:31;;;;;;;2.30;1.20;;;26.00;46.20;;;;;;4959935;28;20041;-49
2022/06/19 04:25:57;;;;;;;2.30;1.20;;;25.90;45.70;;;;;;4961032;28;20027;-48
2022/06/19 04:28:24;;;;;;;2.80;1.10;;;25.90;45.70;;;;;;4960435;28;20201;-48
2022/06/19 04:30:51;;;;;;;3.30;1.60;;;25.90;45.80;;;;;;4960061;28;20034;-47
2022/06/19 04:33:18;;;;;;;2.38;1.40;;;25.90;45.80;;;;;;4959265;28;20692;-48
2022/06/19 04:35:44;;;;;;;3.25;1.55;;;25.90;45.80;;;;;;4960338;28;20026;-48
2022/06/19 04:38:10;;;;;;;2.63;1.50;;;25.90;45.90;;;;;;4959840;28;20186;-48
2022/06/19 04:40:37;;;;;;;2.45;1.30;;;25.90;45.90;;;;;;4957061;28;20559;-48
2022/06/19 04:43:04;;;;;;;2.58;1.40;;;25.90;45.90;;;;;;4956930;28;20042;-49
2022/06/19 04:45:30;;;;;;;3.35;1.58;;;25.90;45.90;;;;;;4956317;28;20142;-49
2022/06/19 04:47:56;;;;;;;2.75;1.55;;;26.00;46.40;;;;;;4954378;28;20244;-48
2022/06/19 04:50:23;;;;;;;3.10;1.30;;;25.90;46.00;;;;;;4956314;28;20027;-48
2022/06/19 04:52:51;;;;;;;3.92;1.40;;;25.90;46.00;;;;;;4956434;28;20039;-48
2022/06/19 04:55:17;;;;;;;2.75;1.50;;;25.90;46.10;;;;;;4955135;28;20023;-48
2022/06/19 04:57:43;;;;;;;2.10;1.20;;;25.90;46.10;;;;;;4955291;28;20327;-48
2022/06/19 05:00:13;;;;;;;2.38;1.20;;;25.90;46.10;;;;;;4957079;28;20035;-48
2022/06/19 05:02:40;;;;;;;2.53;1.58;;;25.90;46.10;;;;;;4956591;28;20038;-49
2022/06/19 05:05:06;;;;;;;2.80;1.27;;;25.90;46.10;;;;;;4957505;28;20030;-49
2022/06/19 05:07:33;;;;;;;2.28;1.27;;;25.90;46.20;;;;;;4956722;28;20605;-47
2022/06/19 05:10:00;;;;;;;2.00;1.17;;;25.90;46.20;;;;;;4955136;28;20118;-48
2022/06/19 05:12:26;;;;;;;2.42;1.30;;;25.90;46.20;;;;;;4954640;28;20019;-47
2022/06/19 05:14:53;;;;;;;1.67;1.10;;;25.90;46.30;;;;;;4955249;28;20089;-49
2022/06/19 05:17:19;;;;;;;2.30;1.23;;;25.90;46.20;;;;;;4956160;28;20112;-48
2022/06/19 05:19:45;;;;;;;2.47;1.40;;;25.90;46.20;;;;;;4954881;28;20035;-47
2022/06/19 05:22:11;;;;;;;2.38;1.30;;;25.90;46.30;;;;;;4956416;28;20032;-47
2022/06/19 05:24:37;;;;;;;2.95;1.60;;;25.90;46.30;;;;;;4956264;28;20402;-48
2022/06/19 05:27:10;;;;;;;2.25;1.40;;;25.90;46.20;;;;;;4956030;28;20332;-49
2022/06/19 05:29:37;;;;;;;2.58;1.60;;;25.90;46.30;;;;;;4955801;28;20057;-47
2022/06/19 05:32:04;;;;;;;2.17;1.17;;;25.90;46.30;;;;;;4957250;28;20045;-48
2022/06/19 05:34:31;;;;;;;2.67;1.50;;;25.90;46.40;;;;;;4957154;28;20025;-49
2022/06/19 05:36:56;;;;;;;2.53;1.33;;;25.90;46.50;;;;;;4956073;28;20094;-48
2022/06/19 05:39:22;;;;;;;3.15;1.45;;;25.90;46.50;;;;;;4956037;28;20573;-49
2022/06/19 05:41:48;;;;;;;2.22;1.20;;;25.90;46.40;;;;;;4955440;28;20482;-48
2022/06/19 05:44:14;;;;;;;2.55;1.60;;;25.90;46.50;;;;;;4956529;28;20170;-46
2022/06/19 05:46:41;;;;;;;3.33;1.70;;;25.90;46.50;;;;;;4956086;28;20655;-48
2022/06/19 05:49:08;;;;;;;2.50;1.45;;;25.90;46.60;;;;;;4954835;28;20491;-48
2022/06/19 05:51:34;;;;;;;2.45;1.50;;;25.90;46.50;;;;;;4952518;28;20051;-49
2022/06/19 05:54:00;;;;;;;2.67;1.70;;;25.90;46.60;;;;;;4950974;28;20030;-48
2022/06/19 05:56:27;;;;;;;2.60;1.60;;;25.90;46.60;;;;;;4948871;28;20028;-48
2022/06/19 05:58:53;;;;;;;2.10;1.42;;;25.90;46.60;;;;;;4949731;28;20063;-48
2022/06/19 06:01:21;;;;;;;2.60;1.60;;;25.90;46.60;;;;;;4949224;28;20023;-48
2022/06/19 06:03:47;;;;;;;3.33;1.65;;;25.90;46.60;;;;;;4946577;28;20035;-48
2022/06/19 06:06:22;;;;;;;3.47;1.80;;;25.90;46.60;;;;;;4945874;29;20090;-48
2022/06/19 06:08:49;;;;;;;3.30;1.80;;;25.90;46.70;;;;;;4943308;29;20031;-48
2022/06/19 06:11:16;;;;;;;3.00;1.70;;;26.00;47.10;;;;;;4945574;28;20108;-47
2022/06/19 06:13:41;;;;;;;2.97;1.73;;;25.90;46.80;;;;;;4945399;28;20028;-48
2022/06/19 06:16:08;;;;;;;3.28;1.80;;;25.90;46.80;;;;;;4945740;29;20045;-48
2022/06/19 06:18:35;;;;;;;3.45;1.95;;;26.00;47.30;;;;;;4946193;28;20114;-48
2022/06/19 06:21:09;;;;;;;3.40;2.03;;;26.00;47.30;;;;;;4945732;28;20177;-47
2022/06/19 06:23:35;;;;;;;3.30;1.70;;;26.00;47.50;;;;;;4945210;29;20038;-48
2022/06/19 06:26:03;;;;;;;3.30;1.90;;;25.90;47.00;;;;;;4950697;28;20023;-48
2022/06/19 06:28:29;;;;;;;3.05;2.15;;;25.90;47.20;;;;;;4954978;28;20016;-48
2022/06/19 06:30:55;;;;;;;3.22;2.17;;;26.00;47.90;;;;;;4955787;28;20026;-48
2022/06/19 06:33:21;;;;;;;4.20;2.17;;;25.90;47.50;;;;;;4953886;28;20054;-49
2022/06/19 06:35:47;;;;;;;3.85;2.50;;;26.00;47.90;;;;;;4954889;28;20645;-48
2022/06/19 06:38:13;;;;;;;4.57;2.38;;;26.00;48.20;;;;;;4955415;28;20593;-49
2022/06/19 06:40:38;;;;;;;4.50;2.35;;;25.90;47.80;;;;;;4954493;28;20114;-50
2022/06/19 06:43:04;;;;;;;4.00;2.30;;;25.90;47.70;;;;;;4959973;28;20121;-50
2022/06/19 06:45:30;;;;;;;4.13;2.50;;;26.00;48.60;;;;;;4961623;28;20062;-49
2022/06/19 06:47:55;;;;;;;3.50;2.42;;;26.00;48.70;;;;;;4945960;29;20121;-49
2022/06/19 06:50:21;;;;;;;3.55;2.10;;;26.00;48.70;;;;;;4945966;29;20056;-49
2022/06/19 06:52:47;;;;;;;3.72;2.50;;;26.00;48.80;;;;;;4945244;29;20023;-49
2022/06/19 06:55:13;;;;;;;4.40;2.60;;;26.00;48.90;;;;;;4942309;28;20039;-47
2022/06/19 06:57:39;;;;;;;3.90;2.25;;;26.00;49.00;;;;;;4928626;29;20111;-47
2022/06/19 07:00:06;;;;;;;4.57;2.40;;;26.00;48.50;;;;;;4924296;29;20110;-47
2022/06/19 07:02:32;;;;;;;3.63;2.20;;;26.00;48.40;;;;;;4936251;28;20110;-47
2022/06/19 07:04:58;;;;;;;4.63;2.42;;;26.00;48.40;;;;;;4946099;29;20324;-46
2022/06/19 07:07:24;;;;;;;4.53;2.50;;;26.10;48.30;;;;;;4945117;28;20027;-48
2022/06/19 07:09:49;;;;;;;3.35;1.95;;;26.10;48.20;;;;;;4945290;28;20431;-48
2022/06/19 07:12:15;;;;;;;4.50;2.30;;;26.10;48.20;;;;;;4944824;28;20468;-47
2022/06/19 07:14:41;;;;;;;3.10;1.98;;;26.10;48.20;;;;;;4944475;29;20050;-47
2022/06/19 07:17:06;;;;;;;4.68;2.22;;;26.10;48.20;;;;;;4945415;29;20442;-47
2022/06/19 07:19:32;;;;;;;3.80;2.38;;;26.10;48.20;;;;;;4945249;29;20031;-48
2022/06/19 07:21:58;;;;;;;4.72;2.20;;;26.10;48.10;;;;;;4949167;28;20027;-48
2022/06/19 07:24:25;;;;;;;3.35;2.00;;;26.10;48.20;;;;;;4949201;28;20027;-48
2022/06/19 07:26:52;;;;;;;3.55;2.10;;;26.10;48.10;;;;;;4952435;28;22506;-47
2022/06/19 07:29:18;;;;;;;3.50;2.20;;;26.10;49.00;;;;;;4954548;28;20319;-45
2022/06/19 07:31:43;;;;;;;4.20;2.22;;;26.20;48.90;;;;;;4953649;28;20224;-47
2022/06/19 07:34:09;;;;;;;4.32;1.92;;;26.20;48.90;;;;;;4946046;28;20027;-49
2022/06/19 07:36:35;;;;;;;4.72;2.20;;;26.20;49.90;;;;;;4954525;28;20179;-49
2022/06/19 07:39:01;;;;;;;4.47;2.08;;;26.20;49.80;;;;;;4959833;28;20032;-49
2022/06/19 07:41:27;;;;;;;3.83;2.25;;;26.20;50.10;;;;;;4936205;28;20730;-49
2022/06/19 07:43:52;;;;;;;4.80;2.17;;;26.20;50.10;;;;;;4930213;29;20035;-48
2022/06/19 07:46:19;;;;;;;3.80;2.15;;;26.30;50.20;;;;;;4944190;29;20027;-49
2022/06/19 07:51:30;;;;;;;3.40;2.08;;;26.30;50.00;;;;;;4950585;28;20499;-47
2022/06/19 07:53:56;;;;;;;3.13;1.80;;;26.30;50.30;;;;;;4953761;28;20051;-46
2022/06/19 07:56:22;;;;;;;3.25;1.88;;;26.30;49.90;;;;;;4954213;28;20585;-48
2022/06/19 07:58:48;;;;;;;3.90;1.88;;;26.40;49.40;;;;;;4954016;28;20215;-50
2022/06/19 08:01:15;;;;;;;3.28;1.98;;;26.30;49.50;;;;;;4953664;28;20098;-49
2022/06/19 08:03:41;;;;;;;3.30;1.90;;;26.30;49.60;;;;;;4953683;28;20538;-48
2022/06/19 08:06:06;;;;;;;3.85;1.80;;;26.40;49.20;;;;;;4954476;28;20065;-48
2022/06/19 08:08:32;;;;;;;3.88;1.80;;;26.40;49.30;;;;;;4954267;28;20102;-49
2022/06/19 08:10:59;;;;;;;3.45;2.00;;;26.40;49.10;;;;;;4952586;28;20491;-49
2022/06/19 08:13:28;;;;;;;3.33;1.90;;;26.40;49.60;;;;;;4952157;28;20065;-47
2022/06/19 08:15:59;;;;;;;3.67;1.65;;;26.40;49.40;;;;;;4954024;28;20034;-49
2022/06/19 08:18:26;;;;;;;4.60;1.90;;;26.40;49.90;;;;;;4957891;28;20029;-49
2022/06/19 08:20:52;;;;;;;4.50;1.98;;;26.40;49.80;;;;;;4959843;28;20023;-50
2022/06/19 08:23:19;;;;;;;4.05;1.80;;;26.40;50.00;;;;;;4956201;28;20035;-47
2022/06/19 08:25:46;;;;;;;2.85;1.73;;;26.40;49.70;;;;;;4955192;28;20407;-48
2022/06/19 08:28:14;;;;;;;3.80;2.22;;;26.40;49.50;;;;;;4955647;28;20069;-47
2022/06/19 08:30:42;;;;;;;2.97;1.75;;;26.40;49.60;;;;;;4956623;28;20026;-48
2022/06/19 08:33:10;;;;;;;4.18;2.10;;;26.50;49.50;;;;;;4955504;28;20090;-46
2022/06/19 08:35:47;;;;;;;3.95;1.80;;;26.50;49.60;;;;;;4947543;28;20063;-48
2022/06/19 08:38:18;;;;;;;2.97;1.70;;;26.50;49.20;;;;;;4953944;28;20048;-47
2022/06/19 08:40:43;;;;;;;3.08;1.55;;;26.50;48.90;;;;;;4955439;28;20061;-47
2022/06/19 08:43:30;;;;;;;3.33;2.00;;;26.50;48.80;;;;;;4948866;28;20733;-47
2022/06/19 08:46:25;;;;;;;3.67;1.98;;;26.50;48.80;;;;;;4955465;28;20031;-48
2022/06/19 08:49:07;;;;;;;2.80;1.65;;;26.50;48.80;;;;;;4957376;28;20105;-49
2022/06/19 08:51:51;;;;;;;4.13;1.73;;;26.50;48.70;;;;;;4957030;28;20023;-48
2022/06/19 08:54:52;;;;;;;3.22;1.83;;;26.50;49.30;;;;;;4956312;28;20015;-48
2022/06/19 08:57:41;;;;;;;4.63;2.13;;;26.50;49.50;;;;;;4957010;28;20558;-48
2022/06/19 09:00:25;;;;;;;2.80;1.60;;;26.50;50.10;;;;;;4957657;28;20688;-48
2022/06/19 09:03:14;;;;;;;3.33;1.85;;;26.50;49.50;;;;;;4956160;28;20023;-48
2022/06/19 09:06:00;;;;;;;3.28;1.67;;;26.50;49.30;;;;;;4957214;28;20594;-48
2022/06/19 09:08:47;;;;;;;3.20;1.85;;;26.50;49.30;;;;;;4957776;28;20031;-48
2022/06/19 09:11:34;;;;;;;3.42;1.80;;;26.50;49.20;;;;;;4957023;28;20210;-47
2022/06/19 09:14:18;;;;;;;3.17;1.63;;;26.50;48.70;;;;;;4956861;28;20353;-50
2022/06/19 09:17:03;;;;;;;5.10;1.70;;;26.60;49.10;;;;;;4956372;28;20605;-48
2022/06/19 09:19:39;;;;;;;2.97;1.70;;;26.50;49.00;;;;;;4955678;28;20033;-49
2022/06/19 09:22:36;;;;;;;4.03;2.03;;;26.50;49.20;;;;;;4957256;28;20098;-48
2022/06/19 09:25:29;;;;;;;3.67;2.20;;;26.60;49.20;;;;;;4956428;28;20030;-49
2022/06/19 09:28:10;;;;;;;2.90;1.65;;;26.50;49.20;;;;;;4954284;28;20023;-48
2022/06/19 09:31:12;;;;;;;3.22;1.80;;;26.60;49.10;;;;;;4955465;28;20023;-49
2022/06/19 09:33:56;;;;;;;3.83;1.60;;;26.60;49.30;;;;;;4957207;28;20022;-49
2022/06/19 09:36:39;;;;;;;3.08;1.65;;;26.60;49.20;;;;;;4954543;28;20448;-47
2022/06/19 09:39:20;;;;;;;3.13;1.77;;;26.60;49.30;;;;;;4955486;28;20027;-48
2022/06/19 09:42:14;;;;;;;3.35;1.92;;;26.60;49.20;;;;;;4955805;28;20169;-49
2022/06/19 09:45:02;;;;;;;4.45;2.10;;;26.60;49.10;;;;;;4952180;28;20377;-49
2022/06/19 09:47:34;;;;;;;3.97;2.33;;;26.60;48.70;;;;;;4956013;28;20028;-48
2022/06/19 09:50:20;;;;;;;;;;;26.60;48.30;;;;;;4955595;28;20019;-47
2022/06/19 09:53:04;;;;;;;2.65;1.50;;;26.60;48.20;;;;;;4955367;28;19914;-48
2022/06/19 09:56:03;;;;;;;3.50;1.80;;;26.60;48.40;;;;;;4956509;28;20039;-48
2022/06/19 09:58:35;;;;;;;4.95;2.20;;;26.60;48.50;;;;;;4954237;28;20050;-49
2022/06/19 10:01:03;;;;;;;3.97;2.05;;;26.60;48.50;;;;;;4956127;28;20641;-49
2022/06/19 10:03:34;;;;;;;4.35;1.88;;;26.60;48.50;;;;;;4953826;28;20032;-50
2022/06/19 10:06:19;;;;;;;4.25;2.45;;;26.60;48.60;;;;;;4954933;28;20020;-49
2022/06/19 10:09:12;;;;;;;4.72;2.28;;;26.60;48.60;;;;;;4956540;28;20025;-50
2022/06/19 10:11:41;;;;;;;4.80;2.10;;;26.60;48.60;;;;;;4954512;28;20101;-49
2022/06/19 10:14:15;;;;;;;2.72;1.75;;;26.60;48.70;;;;;;4955304;28;20118;-50
2022/06/19 10:16:47;;;;;;;3.60;1.70;;;26.60;48.60;;;;;;4955578;28;20162;-48
2022/06/19 10:19:20;;;;;;;3.60;1.85;;;26.60;48.60;;;;;;4956119;28;20023;-50
2022/06/19 10:22:15;;;;;;;5.85;2.65;;;26.60;48.50;;;;;;4953860;28;20731;-50
2022/06/19 10:24:51;;;;;;;4.00;2.00;;;26.60;48.50;;;;;;4955157;28;20031;-49
2022/06/19 10:27:20;;;;;;;3.22;1.83;;;26.60;48.40;;;;;;4953110;28;20039;-47
2022/06/19 10:30:06;;;;;;;5.18;2.20;;;26.60;48.20;;;;;;4954868;28;20564;-48
2022/06/19 10:32:35;;;;;;;3.20;1.92;;;26.60;47.70;;;;;;4955517;28;20015;-48
2022/06/19 10:35:15;;;;;;;4.88;2.22;;;26.60;47.30;;;;;;4953907;28;20038;-47
2022/06/19 10:37:55;;;;;;;2.92;1.70;;;26.60;47.00;;;;;;4953633;28;20611;-47
2022/06/19 10:40:44;;;;;;;3.65;2.00;;;26.60;47.00;;;;;;4954577;28;20106;-46
2022/06/19 10:43:41;;;;;;;3.97;2.00;;;26.60;47.10;;;;;;4953042;28;20487;-49
2022/06/19 10:46:09;;;;;;;3.28;1.90;;;26.60;47.90;;;;;;4953361;28;20114;-48
2022/06/19 10:49:01;;;;;;;2.58;1.50;;;26.60;48.20;;;;;;4954405;28;20168;-50
2022/06/19 10:51:51;;;;;;;5.03;2.10;;;26.60;48.30;;;;;;4954297;28;20066;-47
2022/06/19 10:54:43;;;;;;;3.70;2.25;;;26.70;48.60;;;;;;4953899;28;20384;-49
2022/06/19 10:57:24;;;;;;;3.67;1.92;;;26.60;48.10;;;;;;4953930;28;20396;-48
2022/06/19 10:59:51;;;;;;;3.95;2.20;;;26.60;47.90;;;;;;4952489;28;20086;-47
2022/06/19 11:05:39;;;;;;;2.97;2.00;;;26.70;47.40;;;;;;4954433;28;20037;-47
2022/06/19 11:08:05;;;;;;;4.88;2.33;;;26.70;47.70;;;;;;4953841;28;20042;-47
2022/06/19 11:10:44;;;;;;;4.22;2.00;;;26.70;47.30;;;;;;4954338;28;20031;-47
2022/06/19 11:13:11;;;;;;;18.58;2.88;;;26.80;47.70;;;;;;4952935;28;20032;-47
2022/06/19 11:15:43;;;;;;;4.95;2.25;;;26.80;47.00;;;;;;4953264;28;20081;-47
2022/06/19 11:18:15;;;;;;;3.45;2.08;;;26.80;47.00;;;;;;4949295;28;20611;-48
2022/06/19 11:21:01;;;;;;;3.70;2.25;;;26.80;47.20;;;;;;4948770;28;20150;-48
2022/06/19 11:23:39;;;;;;;4.15;2.08;;;26.80;46.90;;;;;;4952432;28;20035;-49
2022/06/19 11:26:15;;;;;;;3.88;2.03;;;26.80;47.10;;;;;;4955134;28;20774;-48
2022/06/19 11:28:55;;;;;;;3.33;1.48;;;26.80;47.30;;;;;;4953730;28;20020;-49
2022/06/19 11:32:09;;;;;;;3.65;1.83;;;26.80;48.00;;;;;;4942849;28;20067;-49
2022/06/19 11:34:51;;;;;;;4.10;1.75;;;26.80;48.50;;;;;;4949305;28;20395;-49
2022/06/19 11:37:25;;;;;;;3.53;2.10;;;26.80;47.70;;;;;;4952411;28;20023;-48
2022/06/19 11:39:57;;;;;;;3.35;1.95;;;26.80;47.40;;;;;;4952120;28;20523;-48
2022/06/19 11:42:32;;;;;;;4.82;2.13;;;26.90;47.30;;;;;;4953446;28;20057;-49
2022/06/19 11:45:05;;;;;;;3.97;1.80;;;26.90;46.90;;;;;;4952174;28;20121;-48
2022/06/19 11:47:37;;;;;;;3.50;2.03;;;26.90;47.00;;;;;;4950687;28;20121;-49
2022/06/19 11:50:36;;;;;;;4.57;2.17;;;26.90;47.10;;;;;;4953799;28;20023;-48
2022/06/19 11:53:14;;;;;;;3.40;1.77;;;26.90;47.00;;;;;;4952508;28;20039;-48
2022/06/19 11:55:41;;;;;;;3.90;1.95;;;26.90;46.90;;;;;;4957262;28;20019;-48
2022/06/19 11:58:34;;;;;;;3.47;2.03;;;26.90;46.50;;;;;;4957438;28;20055;-48
2022/06/19 12:01:03;;;;;;;3.97;1.85;;;26.90;47.00;;;;;;4957693;28;20534;-48
2022/06/19 12:03:55;;;;;;;3.22;1.77;;;26.90;46.50;;;;;;4957035;28;20042;-48
2022/06/19 12:06:44;;;;;;;4.70;1.85;;;27.00;47.10;;;;;;4956367;28;20029;-48
2022/06/19 12:09:32;;;;;;;3.50;1.90;;;27.00;47.20;;;;;;4956952;28;20728;-48
2022/06/19 12:12:05;;;;;;;4.13;1.67;;;27.00;47.10;;;;;;4957459;28;20673;-49
2022/06/19 12:14:35;;;;;;;4.35;2.03;;;27.00;47.20;;;;;;4954304;28;20031;-48
2022/06/19 12:17:19;;;;;;;5.05;2.13;;;27.10;46.90;;;;;;4955082;28;20035;-48
2022/06/19 12:20:08;;;;;;;4.07;2.00;;;27.10;46.80;;;;;;4956236;28;20030;-48
2022/06/19 12:22:43;;;;;;;3.05;1.73;;;27.10;47.10;;;;;;4950680;28;20035;-48
2022/06/19 12:25:26;;;;;;;4.05;2.00;;;27.10;47.30;;;;;;4956941;28;20563;-49
2022/06/19 12:28:14;;;;;;;3.78;2.17;;;27.10;47.20;;;;;;4956078;28;20684;-49
2022/06/19 12:30:47;;;;;;;3.65;1.92;;;27.10;47.30;;;;;;4957410;28;20023;-48
2022/06/19 12:33:42;;;;;;;3.05;1.73;;;27.20;47.10;;;;;;4955901;28;20052;-48
2022/06/19 12:36:26;;;;;;;5.63;2.22;;;27.10;47.10;;;;;;4938841;28;20758;-48
2022/06/19 12:38:52;;;;;;;3.97;2.03;;;27.20;47.10;;;;;;4956394;28;20027;-47
2022/06/19 12:41:46;;;;;;;3.80;2.30;;;27.20;47.40;;;;;;4956769;28;20037;-49
2022/06/19 12:44:50;;;;;;;4.07;1.98;;;27.20;47.40;;;;;;4937637;28;20034;-48
2022/06/19 12:48:04;;;;;;;3.95;1.50;;;27.20;47.40;;;;;;4914973;29;20036;-49
2022/06/19 12:50:33;;;;;;;4.47;1.65;;;27.20;47.70;;;;;;4910832;29;20052;-48
2022/06/19 12:53:21;;;;;;;4.63;1.73;;;27.20;48.00;;;;;;4947493;28;20224;-49
2022/06/19 12:56:17;;;;;;;4.20;2.00;;;27.20;48.00;;;;;;4965181;28;20041;-48
2022/06/19 12:58:52;;;;;;;4.18;1.80;;;27.20;48.00;;;;;;4948553;28;20442;-49
2022/06/19 13:01:36;;;;;;;5.40;2.25;;;27.20;48.00;;;;;;4947132;28;20035;-47
2022/06/19 13:04:13;;;;;;;3.53;1.90;;;27.20;48.10;;;;;;4936038;29;20034;-49
2022/06/19 13:06:48;;;;;;;3.80;1.90;;;27.20;48.20;;;;;;4929224;29;20365;-50
2022/06/19 13:09:36;;;;;;;5.35;2.00;;;27.20;48.30;;;;;;4929365;29;20042;-49
2022/06/19 13:12:22;;;;;;;3.28;1.77;;;27.30;48.30;;;;;;4939933;28;20090;-48
2022/06/19 13:14:54;;;;;;;4.15;1.83;;;27.20;48.30;;;;;;4948912;28;20471;-48
2022/06/19 13:17:30;;;;;;;2.95;1.48;;;27.20;48.30;;;;;;4948121;29;20035;-49
2022/06/19 13:20:11;;;;;;;4.45;1.70;;;27.30;48.40;;;;;;4948025;28;20032;-52
2022/06/19 13:22:47;;;;;;;3.15;1.60;;;27.30;48.40;;;;;;4948089;29;20192;-48